KCMI/CMI METAR and TAF weather

Enter ICAO airport designator
Station Type Date Time Source
KCMI METAR 2018/12/10 17:53 UTC NOAA

KCMI 101753Z VRB03KT 1/4SM R32R/1000V1200FT FZFG VV002 M04/M06 A3030 RMK AO2 SLP272 I6000 T10441056 11044 21128 58009


Station Type Date Time Source
KCMI Decoded METAR 2018/12/10 17:53 UTC NOAA

UNIV OF ILLINOIS-WILLARD, IL, United States (KCMI) 40-02N 088-16W 228M
Dec 10, 2018 - 12:53 PM EST / 2018.12.10 1753 UTC
Wind: Variable at 3 MPH (3 KT) (direction variable):0
Visibility: 1/4 mile(s):0
Sky conditions: obscured
Weather: freezing fog
Temperature: 24.1 F (-4.4 C)
Dew Point: 21.9 F (-5.6 C)
Relative Humidity: 91%
Pressure (altimeter): 30.3 in. Hg (1026 hPa)
Pressure tendency: 0.03 inches (0.9 hPa) lower than three hours ago
ob: KCMI 101753Z VRB03KT 1/4SM R32R/1000V1200FT FZFG VV002 M04/M06 A3030 RMK AO2 SLP272 I6000 T10441056 11044 21128 58009
cycle: 18

Station Type Date Time Source
KCMI TAF 2018/12/10 18:39 UTC NOAA

TAF KCMI 101737Z 1018/1118 31003KT 1/4SM FZFG VV002
FM102000 VRB03KT 2SM BR BKN015
FM102100 24005KT P6SM SCT020
FM111500 21010KT P6SM FEW250


Example: see airport list